createdAt,value
2022-08-17T03:32:28.331Z,4.47
2022-08-17T03:35:36.385Z,4.90
2022-08-17T03:38:39.633Z,4.75
2022-08-17T03:41:42.460Z,5.47
2022-08-17T03:44:49.408Z,4.30
2022-08-17T03:48:10.822Z,3.92
2022-08-17T03:51:41.533Z,4.22
2022-08-17T03:55:03.985Z,4.30
2022-08-17T03:58:06.675Z,4.12
2022-08-17T04:01:11.764Z,4.10
2022-08-17T04:04:14.809Z,4.32
2022-08-17T04:07:19.541Z,4.43
2022-08-17T04:10:26.455Z,4.30
2022-08-17T04:13:29.219Z,4.80
2022-08-17T04:19:34.978Z,4.43
2022-08-17T04:22:38.580Z,4.22
2022-08-17T04:25:47.791Z,4.15
2022-08-17T04:28:52.044Z,4.30
2022-08-17T04:31:54.789Z,4.35
2022-08-17T04:34:57.631Z,4.18
2022-08-17T04:38:00.380Z,4.30
2022-08-17T04:41:23.564Z,4.43
2022-08-17T04:44:28.327Z,4.43
2022-08-17T04:47:40.902Z,4.12
2022-08-17T04:50:46.660Z,4.32
2022-08-17T04:53:54.303Z,4.00
2022-08-17T04:56:57.926Z,4.03
2022-08-17T05:00:00.884Z,3.90
2022-08-17T05:03:06.297Z,4.15
2022-08-17T05:06:09.565Z,4.30
2022-08-17T05:12:15.992Z,4.50
2022-08-17T05:15:18.508Z,4.43
2022-08-17T05:18:24.468Z,4.22
2022-08-17T05:21:27.659Z,4.37
2022-08-17T05:24:38.330Z,4.15
2022-08-17T05:27:45.737Z,4.50
2022-08-17T05:30:49.756Z,4.32
2022-08-17T05:33:53.329Z,4.75
2022-08-17T05:36:56.148Z,4.32
2022-08-17T05:39:58.902Z,5.00
2022-08-17T05:43:14.067Z,4.32
2022-08-17T05:46:22.191Z,4.00
2022-08-17T05:49:27.655Z,4.20
2022-08-17T05:52:50.314Z,4.20
2022-08-17T05:56:07.107Z,4.18
2022-08-17T05:59:57.191Z,4.68
2022-08-17T06:03:18.813Z,4.43
2022-08-17T06:06:32.510Z,4.20
2022-08-17T06:09:52.425Z,5.32
2022-08-17T06:13:07.489Z,4.00
2022-08-17T06:16:33.191Z,4.93
2022-08-17T06:19:45.537Z,4.35
2022-08-17T06:22:53.577Z,4.53
2022-08-17T06:26:03.779Z,4.85
2022-08-17T06:29:39.052Z,4.28
2022-08-17T06:32:47.529Z,4.28
2022-08-17T06:36:26.430Z,4.95
2022-08-17T06:39:53.865Z,5.18
2022-08-17T06:43:18.194Z,5.10
2022-08-17T06:46:29.961Z,5.85
2022-08-17T06:49:55.247Z,6.43
2022-08-17T06:53:11.841Z,5.12
2022-08-17T06:56:27.068Z,4.37
2022-08-17T06:59:58.775Z,4.95
2022-08-17T07:03:06.753Z,5.10
2022-08-17T07:06:25.159Z,4.72
2022-08-17T07:09:46.022Z,4.62
2022-08-17T07:12:52.085Z,5.00
2022-08-17T07:16:04.780Z,5.18
2022-08-17T07:19:10.908Z,5.12
2022-08-17T07:22:26.257Z,4.62
2022-08-17T07:25:30.467Z,4.68
2022-08-17T07:28:34.946Z,4.15
2022-08-17T07:31:37.852Z,4.37
2022-08-17T07:35:15.726Z,4.07
2022-08-17T07:38:28.265Z,4.25
2022-08-17T07:41:57.941Z,4.40
2022-08-17T07:45:19.382Z,3.70
2022-08-17T07:51:37.369Z,3.83
2022-08-17T07:54:42.737Z,3.65
2022-08-17T07:57:56.917Z,3.53
2022-08-17T08:01:04.976Z,4.20
2022-08-17T08:04:59.334Z,3.97
2022-08-17T08:07:54.247Z,3.70
2022-08-17T08:11:07.481Z,4.05
2022-08-17T08:14:29.793Z,3.80
2022-08-17T08:17:44.872Z,3.80
2022-08-17T08:21:01.948Z,4.18
2022-08-17T08:24:36.806Z,3.78
2022-08-17T08:27:50.097Z,3.95
2022-08-17T08:31:24.386Z,3.75
2022-08-17T08:35:01.908Z,3.60
2022-08-17T08:38:29.309Z,3.67
2022-08-17T08:41:54.643Z,3.67
2022-08-17T08:45:20.609Z,3.97
2022-08-17T08:48:53.836Z,3.75
2022-08-17T08:51:58.353Z,3.70
2022-08-17T08:55:14.885Z,3.58
2022-08-17T08:58:31.773Z,3.72
2022-08-17T09:02:16.689Z,3.90
2022-08-17T09:05:49.926Z,3.83
2022-08-17T09:09:12.832Z,4.12
2022-08-17T09:12:29.298Z,3.80
2022-08-17T09:15:47.519Z,4.00
2022-08-17T09:18:59.820Z,3.45
2022-08-17T09:22:25.154Z,4.07
2022-08-17T09:25:33.133Z,3.90
2022-08-17T09:28:38.786Z,4.00
2022-08-17T09:31:55.241Z,3.12
2022-08-17T09:35:03.563Z,3.75
2022-08-17T09:38:32.808Z,3.85
2022-08-17T09:41:48.534Z,3.95
2022-08-17T09:45:03.998Z,3.22
2022-08-17T09:48:19.008Z,3.53
2022-08-17T09:51:34.932Z,3.17
2022-08-17T09:54:40.875Z,3.42
2022-08-17T09:58:05.189Z,2.97
2022-08-17T10:01:26.259Z,3.53
2022-08-17T10:04:50.138Z,3.62
2022-08-17T10:08:00.376Z,3.55
2022-08-17T10:11:33.328Z,4.10
2022-08-17T10:15:07.697Z,3.40
2022-08-17T10:18:34.325Z,3.17
2022-08-17T10:22:01.567Z,3.17
2022-08-17T10:25:53.917Z,2.80
2022-08-17T10:29:19.774Z,3.17
2022-08-17T10:32:38.429Z,2.80
2022-08-17T10:35:57.224Z,3.15
2022-08-17T10:39:20.968Z,2.65
2022-08-17T10:43:02.124Z,2.40
2022-08-17T10:49:36.615Z,2.37
2022-08-17T10:52:42.875Z,2.50
2022-08-17T10:56:14.407Z,2.50
2022-08-17T10:59:35.352Z,2.50
2022-08-17T11:02:50.433Z,2.35
2022-08-17T11:06:12.740Z,2.60
2022-08-17T11:09:19.950Z,2.87
2022-08-17T11:12:49.796Z,2.70
2022-08-17T11:16:11.006Z,2.53
2022-08-17T11:19:29.092Z,2.40
2022-08-17T11:22:34.510Z,2.28
2022-08-17T11:25:43.695Z,2.47
2022-08-17T11:28:52.696Z,2.25
2022-08-17T11:32:13.706Z,2.37
2022-08-17T11:35:22.211Z,2.55
2022-08-17T11:38:36.897Z,2.67
2022-08-17T11:41:49.699Z,2.12
2022-08-17T11:45:32.566Z,2.25
2022-08-17T11:49:01.841Z,1.90
2022-08-17T11:52:05.042Z,2.37
2022-08-17T11:55:34.418Z,2.00
2022-08-17T11:58:45.163Z,2.22
2022-08-17T12:01:56.692Z,1.90
2022-08-17T12:08:20.058Z,2.20
2022-08-17T12:12:11.042Z,2.10
2022-08-17T12:15:10.110Z,2.30
2022-08-17T12:18:31.785Z,2.25
2022-08-17T12:22:11.531Z,2.05
2022-08-17T12:25:40.519Z,2.33
2022-08-17T12:28:57.244Z,2.12
2022-08-17T12:32:02.182Z,1.90
2022-08-17T12:35:29.586Z,2.00
2022-08-17T12:38:37.120Z,1.70
2022-08-17T12:41:44.317Z,1.90
2022-08-17T12:44:50.334Z,2.08
2022-08-17T12:48:07.780Z,1.62
2022-08-17T12:51:12.740Z,2.08
2022-08-17T12:54:29.247Z,1.90
2022-08-17T12:57:38.016Z,1.83
2022-08-17T13:00:48.769Z,1.90
2022-08-17T13:03:55.160Z,1.70
2022-08-17T13:06:59.890Z,2.10
2022-08-17T13:10:04.363Z,1.85
2022-08-17T13:13:20.827Z,2.03
2022-08-17T13:16:27.942Z,2.00
2022-08-17T13:19:40.352Z,1.90
2022-08-17T13:22:53.199Z,1.95
2022-08-17T13:26:09.443Z,1.77
2022-08-17T13:29:28.716Z,1.90
2022-08-17T13:32:31.222Z,2.40
2022-08-17T13:35:49.315Z,2.20
2022-08-17T13:39:06.616Z,2.70
2022-08-17T13:42:32.954Z,2.78
2022-08-17T13:46:22.194Z,2.33
2022-08-17T13:49:26.201Z,2.72
2022-08-17T13:52:51.950Z,2.70
2022-08-17T13:55:59.340Z,2.87
2022-08-17T13:59:09.321Z,2.42
2022-08-17T14:02:16.435Z,2.08
2022-08-17T14:05:19.306Z,2.12
2022-08-17T14:08:22.004Z,1.65
2022-08-17T14:11:26.934Z,1.85
2022-08-17T14:14:29.965Z,2.10
2022-08-17T14:17:38.461Z,1.48
2022-08-17T14:20:43.137Z,1.70
2022-08-17T14:23:54.461Z,1.80
2022-08-17T14:26:59.375Z,1.70
2022-08-17T14:30:07.848Z,1.87
2022-08-17T14:33:11.712Z,1.77
2022-08-17T14:36:14.707Z,1.52
2022-08-17T14:39:18.680Z,1.75
2022-08-17T14:42:26.378Z,1.65
2022-08-17T14:45:31.813Z,1.58
2022-08-17T14:48:38.576Z,1.60
2022-08-17T14:51:43.912Z,1.50
2022-08-17T14:54:52.321Z,1.80
2022-08-17T14:57:55.017Z,1.65
2022-08-17T15:00:58.355Z,1.70
2022-08-17T15:04:01.059Z,2.25
2022-08-17T15:07:04.587Z,1.95
2022-08-17T15:10:09.120Z,1.60
2022-08-17T15:13:17.922Z,2.10
2022-08-17T15:16:20.771Z,1.73
2022-08-17T15:19:23.673Z,2.20
2022-08-17T15:22:30.064Z,2.08
2022-08-17T15:25:33.364Z,2.08
2022-08-17T15:28:36.023Z,1.98
2022-08-17T15:31:39.535Z,2.10
2022-08-17T15:34:42.207Z,2.40
2022-08-17T15:37:45.557Z,2.40
